Temp: 12.4°C   Baro: 1022.4mb
  Wind: 0.9mph   Dir: NE (54°)
  Rain: 0.0mm (0.0mm/hr)
  Solar: 0W/m2  Hum: 85%

Historic data

Bath Spa Weather Station Historical Data
Daily Summary for September 8, 2019 Units:  Both    English   Metric
Daily Weekly Monthly Yearly Custom
  High: Low: Average:
Temperature: 59.3 °F /  15.2 °C 49.8 °F /  9.9 °C 53.8 °F /  12.1 °C
Dew Point: 53.1 °F /  11.7 °C 45.1 °F /  7.3 °C 49.4 °F /  9.7 °C
Humidity: 92% 71.3% 85%
Wind Speed: 12.9mph /  20.8km/h - 4.8mph /  7.7km/h
Wind Gust: 26mph /  41.8km/h - -
Wind- - West
Pressure: 29.80 in /  1009 hPa 29.68 in /  1005 hPa -
Precipitation: 0.08 in /  2.03 mm    
Historical Graphs
 
 
Tabular Data for September 8, 2019
Time Temperature Dew Point Pressure Wind Wind Speed Wind Gust Humidity Rainfall Rate (Hourly) solar
00:04 56.3 °F /  13.5 °C 53.1 °F /  11.7 °C 29.80in /  1009hPa West 5.1mph /  8.2km/h 10mph /  16.1km/h 89% 0.00in /  0mm 0 W/m2
00:09 56.5 °F /  13.6 °C 53.1 °F /  11.7 °C 29.79in /  1008.7hPa West 3.3mph /  5.3km/h 10mph /  16.1km/h 88.8% 0.00in /  0mm 0 W/m2
00:14 56.5 °F /  13.6 °C 52.9 °F /  11.6 °C 29.79in /  1008.7hPa West 3.3mph /  5.3km/h 8mph /  12.9km/h 88% 0.00in /  0mm 0 W/m2
00:19 56.4 °F /  13.6 °C 52.9 °F /  11.6 °C 29.79in /  1008.7hPa West 2.5mph /  4km/h 8mph /  12.9km/h 88% 0.00in /  0mm 0 W/m2
00:24 56.5 °F /  13.6 °C 52.9 °F /  11.6 °C 29.79in /  1008.7hPa WSW 4.5mph /  7.2km/h 10mph /  16.1km/h 88% 0.00in /  0mm 0 W/m2
00:29 56.5 °F /  13.6 °C 52.7 °F /  11.5 °C 29.79in /  1008.7hPa WSW 3.2mph /  5.1km/h 7mph /  11.3km/h 87.2% 0.00in /  0mm 0 W/m2
00:34 56.5 °F /  13.6 °C 52.7 °F /  11.5 °C 29.79in /  1008.7hPa WSW 3.3mph /  5.3km/h 7mph /  11.3km/h 87% 0.00in /  0mm 0 W/m2
00:39 56.4 °F /  13.6 °C 52.6 °F /  11.4 °C 29.79in /  1008.7hPa WSW 1.8mph /  2.9km/h 6mph /  9.7km/h 87% 0.00in /  0mm 0 W/m2
00:44 56.3 °F /  13.5 °C 52.5 °F /  11.4 °C 29.80in /  1009hPa WSW 4mph /  6.4km/h 7mph /  11.3km/h 87% 0.00in /  0mm 0 W/m2
00:49 56.3 °F /  13.5 °C 52.7 °F /  11.5 °C 29.80in /  1009hPa West 4mph /  6.4km/h 9mph /  14.5km/h 87.6% 0.00in /  0mm 0 W/m2
00:54 56.2 °F /  13.4 °C 52.8 °F /  11.6 °C 29.80in /  1009hPa WSW 4.3mph /  6.9km/h 10mph /  16.1km/h 88% 0.00in /  0mm 0 W/m2
00:59 56.2 °F /  13.4 °C 52.8 °F /  11.6 °C 29.80in /  1009hPa West 5.3mph /  8.5km/h 11mph /  17.7km/h 88% 0.00in /  0mm 0 W/m2
01:04 56.1 °F /  13.4 °C 52.7 °F /  11.5 °C 29.80in /  1009hPa West 3.4mph /  5.5km/h 9mph /  14.5km/h 88% 0.00in /  0mm 0 W/m2
01:09 56.1 °F /  13.4 °C 52.7 °F /  11.5 °C 29.80in /  1009hPa West 3.8mph /  6.1km/h 9mph /  14.5km/h 88% 0.00in /  0mm 0 W/m2
01:14 55.9 °F /  13.3 °C 52.5 °F /  11.4 °C 29.80in /  1009hPa West 2.3mph /  3.7km/h 7mph /  11.3km/h 88% 0.00in /  0mm 0 W/m2
01:19 55.9 °F /  13.3 °C 52.5 °F /  11.4 °C 29.80in /  1009hPa West 5.1mph /  8.2km/h 9mph /  14.5km/h 88% 0.00in /  0mm 0 W/m2
01:24 55.9 °F /  13.3 °C 52.5 °F /  11.4 °C 29.80in /  1009hPa West 2.7mph /  4.3km/h 8mph /  12.9km/h 88% 0.00in /  0mm 0 W/m2
01:29 55.8 °F /  13.2 °C 52.3 °F /  11.3 °C 29.80in /  1009hPa West 1.6mph /  2.6km/h 9mph /  14.5km/h 88% 0.00in /  0mm 0 W/m2
01:34 55.7 °F /  13.2 °C 52.2 °F /  11.2 °C 29.80in /  1009hPa West 0.9mph /  1.4km/h 4mph /  6.4km/h 88% 0.00in /  0mm 0 W/m2
01:39 55.5 °F /  13.1 °C 52.1 °F /  11.2 °C 29.80in /  1009hPa West 1.8mph /  2.9km/h 5mph /  8km/h 88% 0.00in /  0mm 0 W/m2
01:44 55.4 °F /  13 °C 52 °F /  11.1 °C 29.80in /  1009hPa West 2.5mph /  4km/h 6mph /  9.7km/h 88% 0.00in /  0mm 0 W/m2
01:49 55.4 °F /  13 °C 52 °F /  11.1 °C 29.80in /  1009hPa West 1.3mph /  2.1km/h 6mph /  9.7km/h 88% 0.00in /  0mm 0 W/m2
01:54 55.2 °F /  12.9 °C 51.8 °F /  11 °C 29.80in /  1009hPa West 1.4mph /  2.3km/h 4mph /  6.4km/h 88% 0.00in /  0mm 0 W/m2
01:59 55.1 °F /  12.8 °C 51.8 °F /  11 °C 29.80in /  1009hPa West 2.4mph /  3.9km/h 6mph /  9.7km/h 88.4% 0.00in /  0mm 0 W/m2
02:04 55 °F /  12.8 °C 51.8 °F /  11 °C 29.80in /  1009hPa West 1.7mph /  2.7km/h 6mph /  9.7km/h 89% 0.00in /  0mm 0 W/m2
02:09 55 °F /  12.8 °C 51.8 °F /  11 °C 29.80in /  1009hPa West 2mph /  3.2km/h 4mph /  6.4km/h 89% 0.00in /  0mm 0 W/m2
02:14 54.9 °F /  12.7 °C 51.6 °F /  10.9 °C 29.80in /  1009hPa West 1.2mph /  1.9km/h 4mph /  6.4km/h 89% 0.00in /  0mm 0 W/m2
02:19 54.7 °F /  12.6 °C 51.4 °F /  10.8 °C 29.79in /  1008.7hPa West 0.4mph /  0.6km/h 3mph /  4.8km/h 89% 0.00in /  0mm 0 W/m2
02:24 54.5 °F /  12.5 °C 51.3 °F /  10.7 °C 29.79in /  1008.7hPa Calm   2mph /  3.2km/h 89% 0.00in /  0mm 0 W/m2
02:29 54.3 °F /  12.4 °C 51.1 °F /  10.6 °C 29.79in /  1008.7hPa West 0.3mph /  0.5km/h 2mph /  3.2km/h 89% 0.00in /  0mm 0 W/m2
02:34 54.1 °F /  12.3 °C 50.9 °F /  10.5 °C 29.79in /  1008.7hPa West 0.5mph /  0.8km/h 3mph /  4.8km/h 89% 0.00in /  0mm 0 W/m2
02:39 54 °F /  12.2 °C 50.7 °F /  10.4 °C 29.79in /  1008.7hPa West 0.8mph /  1.3km/h 4mph /  6.4km/h 89% 0.00in /  0mm 0 W/m2
02:44 53.9 °F /  12.2 °C 51 °F /  10.6 °C 29.79in /  1008.7hPa West 0.3mph /  0.5km/h 3mph /  4.8km/h 89.8% 0.00in /  0mm 0 W/m2
02:49 53.7 °F /  12.1 °C 50.8 °F /  10.4 °C 29.79in /  1008.7hPa West 0.1mph /  0.2km/h 2mph /  3.2km/h 90% 0.00in /  0mm 0 W/m2
02:54 53.5 °F /  11.9 °C 50.6 °F /  10.3 °C 29.78in /  1008.4hPa West 0.1mph /  0.2km/h 2mph /  3.2km/h 90% 0.00in /  0mm 0 W/m2
02:59 53.4 °F /  11.9 °C 50.5 °F /  10.3 °C 29.78in /  1008.4hPa Calm     90% 0.00in /  0mm 0 W/m2
03:04 53.2 °F /  11.8 °C 50.4 °F /  10.2 °C 29.78in /  1008.4hPa Calm   1mph /  1.6km/h 90% 0.00in /  0mm 0 W/m2
03:09 53.1 °F /  11.7 °C 50.3 °F /  10.2 °C 29.78in /  1008.4hPa West 0.1mph /  0.2km/h 2mph /  3.2km/h 90% 0.00in /  0mm 0 W/m2
03:14 53.1 °F /  11.7 °C 50.2 °F /  10.1 °C 29.78in /  1008.4hPa West 0.9mph /  1.4km/h 3mph /  4.8km/h 90% 0.00in /  0mm 0 W/m2
03:19 53 °F /  11.7 °C 50.1 °F /  10.1 °C 29.78in /  1008.4hPa West 0.1mph /  0.2km/h 3mph /  4.8km/h 90% 0.00in /  0mm 0 W/m2
03:24 52.8 °F /  11.6 °C 49.9 °F /  9.9 °C 29.78in /  1008.4hPa West 0.2mph /  0.3km/h 2mph /  3.2km/h 90% 0.00in /  0mm 0 W/m2
03:29 52.7 °F /  11.5 °C 49.8 °F /  9.9 °C 29.78in /  1008.4hPa West 0.9mph /  1.4km/h 3mph /  4.8km/h 90% 0.00in /  0mm 0 W/m2
03:34 52.7 °F /  11.5 °C 49.8 °F /  9.9 °C 29.78in /  1008.4hPa West 2.1mph /  3.4km/h 5mph /  8km/h 90% 0.00in /  0mm 0 W/m2
03:39 52.7 °F /  11.5 °C 49.8 °F /  9.9 °C 29.78in /  1008.4hPa West 1.6mph /  2.6km/h 5mph /  8km/h 90% 0.00in /  0mm 0 W/m2
03:44 52.8 °F /  11.6 °C 49.9 °F /  9.9 °C 29.78in /  1008.4hPa West 1.6mph /  2.6km/h 5mph /  8km/h 90% 0.00in /  0mm 0 W/m2
03:49 52.8 °F /  11.6 °C 49.9 °F /  9.9 °C 29.78in /  1008.4hPa West 0.2mph /  0.3km/h 5mph /  8km/h 90% 0.00in /  0mm 0 W/m2
03:54 52.7 °F /  11.5 °C 49.8 °F /  9.9 °C 29.78in /  1008.4hPa West 0.6mph /  1km/h 3mph /  4.8km/h 90% 0.00in /  0mm 0 W/m2
03:59 52.7 °F /  11.5 °C 49.8 °F /  9.9 °C 29.78in /  1008.4hPa West 0.7mph /  1.1km/h 3mph /  4.8km/h 90% 0.00in /  0mm 0 W/m2
04:04 52.7 °F /  11.5 °C 49.8 °F /  9.9 °C 29.78in /  1008.4hPa West 0.4mph /  0.6km/h 2mph /  3.2km/h 90% 0.00in /  0mm 0 W/m2
04:09 52.5 °F /  11.4 °C 49.6 °F /  9.8 °C 29.78in /  1008.4hPa West 0.4mph /  0.6km/h 3mph /  4.8km/h 90% 0.00in /  0mm 0 W/m2
04:14 52.5 °F /  11.4 °C 49.6 °F /  9.8 °C 29.78in /  1008.4hPa West 0.2mph /  0.3km/h 2mph /  3.2km/h 89.8% 0.00in /  0mm 0 W/m2
04:19 52.4 °F /  11.3 °C 49.4 °F /  9.7 °C 29.78in /  1008.4hPa Calm   1mph /  1.6km/h 89% 0.00in /  0mm 0 W/m2
04:24 52.3 °F /  11.3 °C 49.3 °F /  9.6 °C 29.78in /  1008.4hPa West 0.6mph /  1km/h 3mph /  4.8km/h 89% 0.00in /  0mm 0 W/m2
04:29 52.3 °F /  11.3 °C 49.4 °F /  9.7 °C 29.78in /  1008.4hPa West 1.8mph /  2.9km/h 5mph /  8km/h 89.5% 0.00in /  0mm 0 W/m2
04:34 52.3 °F /  11.3 °C 49.5 °F /  9.7 °C 29.78in /  1008.4hPa West 0.4mph /  0.6km/h 5mph /  8km/h 90% 0.00in /  0mm 0 W/m2
04:39 52.2 °F /  11.2 °C 49.4 °F /  9.7 °C 29.77in /  1008hPa Calm     90% 0.00in /  0mm 0 W/m2
04:44 52.2 °F /  11.2 °C 49.3 °F /  9.6 °C 29.77in /  1008hPa Calm     90% 0.00in /  0mm 0 W/m2
04:49 51.9 °F /  11.1 °C 48.9 °F /  9.4 °C 29.77in /  1008hPa West 0.1mph /  0.2km/h 1mph /  1.6km/h 89.4% 0.00in /  0mm 0 W/m2
04:54 51.7 °F /  10.9 °C 48.7 °F /  9.3 °C 29.77in /  1008hPa West 0.1mph /  0.2km/h 1mph /  1.6km/h 89.6% 0.00in /  0mm 0 W/m2
04:59 51.5 °F /  10.8 °C 48.7 °F /  9.3 °C 29.77in /  1008hPa Calm   1mph /  1.6km/h 90% 0.00in /  0mm 0 W/m2
05:04 51.4 °F /  10.8 °C 48.6 °F /  9.2 °C 29.77in /  1008hPa Calm     90% 0.00in /  0mm 0 W/m2
05:09 51.4 °F /  10.8 °C 48.6 °F /  9.2 °C 29.77in /  1008hPa West 0.2mph /  0.3km/h 1mph /  1.6km/h 90% 0.00in /  0mm 0 W/m2
05:14 51.3 °F /  10.7 °C 48.5 °F /  9.2 °C 29.77in /  1008hPa West 1.6mph /  2.6km/h 4mph /  6.4km/h 90% 0.00in /  0mm 0 W/m2
05:19 51.4 °F /  10.8 °C 48.6 °F /  9.2 °C 29.77in /  1008hPa West 2mph /  3.2km/h 6mph /  9.7km/h 90% 0.00in /  0mm 0 W/m2
05:24 51.4 °F /  10.8 °C 48.6 °F /  9.2 °C 29.77in /  1008hPa West 0.1mph /  0.2km/h 4mph /  6.4km/h 90% 0.00in /  0mm 0 W/m2
05:29 51.3 °F /  10.7 °C 48.4 °F /  9.1 °C 29.77in /  1008hPa West 0.4mph /  0.6km/h 2mph /  3.2km/h 90% 0.00in /  0mm 0 W/m2
05:34 51.2 °F /  10.7 °C 48.3 °F /  9.1 °C 29.77in /  1008hPa West 0.1mph /  0.2km/h 1mph /  1.6km/h 90% 0.00in /  0mm 0 W/m2
05:39 51.1 °F /  10.6 °C 48.6 °F /  9.2 °C 29.77in /  1008hPa Calm   1mph /  1.6km/h 91% 0.00in /  0mm 0 W/m2
05:44 51 °F /  10.6 °C 48.5 °F /  9.2 °C 29.77in /  1008hPa Calm     91% 0.00in /  0mm 0 W/m2
05:49 51 °F /  10.6 °C 48.5 °F /  9.2 °C 29.77in /  1008hPa Calm     91% 0.00in /  0mm 0 W/m2
05:54 50.9 °F /  10.5 °C 48.4 °F /  9.1 °C 29.77in /  1008hPa Calm     91% 0.00in /  0mm 0 W/m2
05:59 51.1 °F /  10.6 °C 48.6 °F /  9.2 °C 29.77in /  1008hPa West 0.6mph /  1km/h 3mph /  4.8km/h 91% 0.00in /  0mm 0 W/m2
06:04 51.1 °F /  10.6 °C 48.6 °F /  9.2 °C 29.76in /  1007.7hPa West 0.6mph /  1km/h 3mph /  4.8km/h 91% 0.00in /  0mm 0 W/m2
06:09 51.1 °F /  10.6 °C 48.6 °F /  9.2 °C 29.76in /  1007.7hPa West 0.3mph /  0.5km/h 3mph /  4.8km/h 91% 0.00in /  0mm 0 W/m2
06:14 50.9 °F /  10.5 °C 48.4 °F /  9.1 °C 29.76in /  1007.7hPa Calm   1mph /  1.6km/h 91% 0.00in /  0mm 0 W/m2
06:19 50.9 °F /  10.5 °C 48.4 °F /  9.1 °C 29.76in /  1007.7hPa West 0.1mph /  0.2km/h 1mph /  1.6km/h 91% 0.00in /  0mm 0 W/m2
06:24 50.9 °F /  10.5 °C 48.4 °F /  9.1 °C 29.76in /  1007.7hPa West 0.7mph /  1.1km/h 3mph /  4.8km/h 91% 0.00in /  0mm 0 W/m2
06:29 50.8 °F /  10.4 °C 48.3 °F /  9.1 °C 29.76in /  1007.7hPa West 1.1mph /  1.8km/h 4mph /  6.4km/h 91% 0.00in /  0mm 0 W/m2
06:34 50.9 °F /  10.5 °C 48.4 °F /  9.1 °C 29.76in /  1007.7hPa West 1.7mph /  2.7km/h 6mph /  9.7km/h 91% 0.00in /  0mm 0 W/m2
06:39 50.9 °F /  10.5 °C 48.4 °F /  9.1 °C 29.76in /  1007.7hPa West 0.6mph /  1km/h 6mph /  9.7km/h 91% 0.00in /  0mm 0 W/m2
06:44 50.9 °F /  10.5 °C 48.4 °F /  9.1 °C 29.76in /  1007.7hPa WSW 1.1mph /  1.8km/h 5mph /  8km/h 91% 0.00in /  0mm 0 W/m2
06:49 50.9 °F /  10.5 °C 48.4 °F /  9.1 °C 29.76in /  1007.7hPa Calm   5mph /  8km/h 91.2% 0.00in /  0mm 0 W/m2
06:54 50.7 °F /  10.4 °C 48.5 °F /  9.2 °C 29.76in /  1007.7hPa WSW 0.1mph /  0.2km/h 5mph /  8km/h 91.6% 0.00in /  0mm 0 W/m2
06:59 50.7 °F /  10.4 °C 48.6 °F /  9.2 °C 29.76in /  1007.7hPa WSW 0.2mph /  0.3km/h 1mph /  1.6km/h 92% 0.00in /  0mm 0 W/m2
07:04 50.7 °F /  10.4 °C 48.6 °F /  9.2 °C 29.76in /  1007.7hPa Calm   1mph /  1.6km/h 92% 0.00in /  0mm 0 W/m2
07:09 50.7 °F /  10.4 °C 48.6 °F /  9.2 °C 29.76in /  1007.7hPa WSW 0.5mph /  0.8km/h 2mph /  3.2km/h 92% 0.00in /  0mm 0 W/m2
07:14 50.7 °F /  10.4 °C 48.6 °F /  9.2 °C 29.76in /  1007.7hPa Calm   2mph /  3.2km/h 92% 0.00in /  0mm 0 W/m2
07:19 50.7 °F /  10.4 °C 48.6 °F /  9.2 °C 29.76in /  1007.7hPa WSW 0.6mph /  1km/h 3mph /  4.8km/h 92% 0.00in /  0mm 7 W/m2
07:24 50.9 °F /  10.5 °C 48.7 °F /  9.3 °C 29.76in /  1007.7hPa WSW 1.3mph /  2.1km/h 5mph /  8km/h 92% 0.00in /  0mm 7 W/m2
07:29 50.9 °F /  10.5 °C 48.7 °F /  9.3 °C 29.75in /  1007.3hPa WSW 1mph /  1.6km/h 5mph /  8km/h 92% 0.00in /  0mm 11 W/m2
07:34 51.2 °F /  10.7 °C 49 °F /  9.4 °C 29.75in /  1007.3hPa WSW 1.1mph /  1.8km/h 5mph /  8km/h 92% 0.00in /  0mm 14 W/m2
07:39 51.3 °F /  10.7 °C 49.1 °F /  9.5 °C 29.75in /  1007.3hPa WSW 1.5mph /  2.4km/h 6mph /  9.7km/h 92% 0.00in /  0mm 16 W/m2
07:44 51.3 °F /  10.7 °C 49.1 °F /  9.5 °C 29.75in /  1007.3hPa WSW 0.7mph /  1.1km/h 5mph /  8km/h 92% 0.00in /  0mm 25 W/m2
07:49 51.3 °F /  10.7 °C 49.1 °F /  9.5 °C 29.75in /  1007.3hPa WSW 1.2mph /  1.9km/h 4mph /  6.4km/h 92% 0.00in /  0mm 25 W/m2
07:54 51.4 °F /  10.8 °C 49.3 °F /  9.6 °C 29.75in /  1007.3hPa SW 3.7mph /  6km/h 10mph /  16.1km/h 92% 0.00in /  0mm 23 W/m2
07:59 51.6 °F /  10.9 °C 49.5 °F /  9.7 °C 29.75in /  1007.3hPa WSW 3.4mph /  5.5km/h 10mph /  16.1km/h 92% 0.00in /  0mm 26 W/m2
08:04 51.7 °F /  10.9 °C 49.5 °F /  9.7 °C 29.75in /  1007.3hPa SW 3.9mph /  6.3km/h 8mph /  12.9km/h 92% 0.00in /  0mm 42 W/m2
08:09 51.8 °F /  11 °C 49.6 °F /  9.8 °C 29.76in /  1007.7hPa SW 4.9mph /  7.9km/h 9mph /  14.5km/h 92% 0.00in /  0mm 49 W/m2
08:14 51.8 °F /  11 °C 49.6 °F /  9.8 °C 29.76in /  1007.7hPa WSW 4mph /  6.4km/h 10mph /  16.1km/h 92% 0.00in /  0mm 47 W/m2
08:19 51.9 °F /  11.1 °C 49.6 °F /  9.8 °C 29.75in /  1007.3hPa WSW 2.5mph /  4km/h 10mph /  16.1km/h 92% 0.00in /  0mm 44 W/m2
08:24 52 °F /  11.1 °C 49.6 °F /  9.8 °C 29.75in /  1007.3hPa SW 4.1mph /  6.6km/h 12mph /  19.3km/h 92% 0.00in /  0mm 37 W/m2
08:29 52.2 °F /  11.2 °C 49.8 °F /  9.9 °C 29.75in /  1007.3hPa WSW 3.3mph /  5.3km/h 12mph /  19.3km/h 92% 0.00in /  0mm 37 W/m2
08:34 52.2 °F /  11.2 °C 49.7 °F /  9.8 °C 29.75in /  1007.3hPa WSW 7.5mph /  12.1km/h 13mph /  20.9km/h 91.7% 0.00in /  0mm 32 W/m2
08:39 52.2 °F /  11.2 °C 49.6 °F /  9.8 °C 29.75in /  1007.3hPa WSW 1.5mph /  2.4km/h 11mph /  17.7km/h 91% 0.00in /  0mm 51 W/m2
08:44 52.2 °F /  11.2 °C 49.6 °F /  9.8 °C 29.75in /  1007.3hPa WSW 4.1mph /  6.6km/h 11mph /  17.7km/h 91% 0.00in /  0mm 58 W/m2
08:49 52.3 °F /  11.3 °C 49.8 °F /  9.9 °C 29.75in /  1007.3hPa SW 4.2mph /  6.8km/h 8mph /  12.9km/h 91% 0.00in /  0mm 67 W/m2
08:54 52.5 °F /  11.4 °C 50 °F /  10 °C 29.75in /  1007.3hPa SW 4.2mph /  6.8km/h 10mph /  16.1km/h 91% 0.00in /  0mm 77 W/m2
08:59 52.7 °F /  11.5 °C 50 °F /  10 °C 29.75in /  1007.3hPa SW 3.6mph /  5.8km/h 8mph /  12.9km/h 90.5% 0.00in /  0mm 77 W/m2
09:04 52.7 °F /  11.5 °C 49.8 °F /  9.9 °C 29.75in /  1007.3hPa WSW 5mph /  8km/h 10mph /  16.1km/h 90% 0.00in /  0mm 105 W/m2
09:09 53.1 °F /  11.7 °C 50.2 °F /  10.1 °C 29.75in /  1007.3hPa SW 5.2mph /  8.4km/h 12mph /  19.3km/h 90% 0.00in /  0mm 118 W/m2
09:14 53.2 °F /  11.8 °C 50.4 °F /  10.2 °C 29.75in /  1007.3hPa SW 5mph /  8km/h 11mph /  17.7km/h 89.9% 0.00in /  0mm 130 W/m2
09:19 53.4 °F /  11.9 °C 50.2 °F /  10.1 °C 29.75in /  1007.3hPa SW 6.3mph /  10.1km/h 13mph /  20.9km/h 89% 0.00in /  0mm 146 W/m2
09:24 53.5 °F /  11.9 °C 50.3 °F /  10.2 °C 29.75in /  1007.3hPa SW 6.4mph /  10.3km/h 13mph /  20.9km/h 89% 0.00in /  0mm 165 W/m2
09:29 53.8 °F /  12.1 °C 50.4 °F /  10.2 °C 29.74in /  1007hPa WSW 6.4mph /  10.3km/h 13mph /  20.9km/h 88.3% 0.00in /  0mm 192 W/m2
09:34 54.1 °F /  12.3 °C 50.6 °F /  10.3 °C 29.74in /  1007hPa SW 5.3mph /  8.5km/h 12mph /  19.3km/h 88% 0.00in /  0mm 287 W/m2
09:39 54.5 °F /  12.5 °C 51.1 °F /  10.6 °C 29.74in /  1007hPa SW 5.2mph /  8.4km/h 11mph /  17.7km/h 88% 0.00in /  0mm 325 W/m2
09:44 54.8 °F /  12.7 °C 51.1 °F /  10.6 °C 29.74in /  1007hPa SW 6.9mph /  11.1km/h 13mph /  20.9km/h 87% 0.00in /  0mm 250 W/m2
09:49 54.9 °F /  12.7 °C 51.1 °F /  10.6 °C 29.74in /  1007hPa SW 6.3mph /  10.1km/h 13mph /  20.9km/h 86.9% 0.00in /  0mm 185 W/m2
09:54 54.9 °F /  12.7 °C 50.7 °F /  10.4 °C 29.74in /  1007hPa SW 5.7mph /  9.2km/h 11mph /  17.7km/h 86% 0.00in /  0mm 167 W/m2
09:59 54.9 °F /  12.7 °C 50.7 °F /  10.4 °C 29.74in /  1007hPa SW 5mph /  8km/h 9mph /  14.5km/h 86% 0.00in /  0mm 287 W/m2
10:04 55.1 °F /  12.8 °C 50.9 °F /  10.5 °C 29.74in /  1007hPa SW 4.8mph /  7.7km/h 11mph /  17.7km/h 86% 0.00in /  0mm 415 W/m2
10:09 55.6 °F /  13.1 °C 51.4 °F /  10.8 °C 29.74in /  1007hPa WSW 5.8mph /  9.3km/h 16mph /  25.7km/h 85.8% 0.00in /  0mm 438 W/m2
10:14 55.8 °F /  13.2 °C 51.3 °F /  10.7 °C 29.74in /  1007hPa SW 6.5mph /  10.5km/h 16mph /  25.7km/h 84.7% 0.00in /  0mm 452 W/m2
10:19 55.9 °F /  13.3 °C 51.3 °F /  10.7 °C 29.74in /  1007hPa WSW 7.2mph /  11.6km/h 12mph /  19.3km/h 84.4% 0.00in /  0mm 369 W/m2
10:24 55.9 °F /  13.3 °C 51.3 °F /  10.7 °C 29.74in /  1007hPa SW 6.3mph /  10.1km/h 12mph /  19.3km/h 84% 0.00in /  0mm 251 W/m2
10:29 55.9 °F /  13.3 °C 51.3 °F /  10.7 °C 29.74in /  1007hPa WSW 6.1mph /  9.8km/h 11mph /  17.7km/h 84.4% 0.00in /  0mm 236 W/m2
10:34 55.9 °F /  13.3 °C 51.2 °F /  10.7 °C 29.74in /  1007hPa SW 8.6mph /  13.8km/h 13mph /  20.9km/h 84% 0.00in /  0mm 239 W/m2
10:39 55.9 °F /  13.3 °C 51.3 °F /  10.7 °C 29.73in /  1006.7hPa SW 6.2mph /  10km/h 11mph /  17.7km/h 84% 0.00in /  0mm 244 W/m2
10:44 56.1 °F /  13.4 °C 51.4 °F /  10.8 °C 29.73in /  1006.7hPa WSW 8.2mph /  13.2km/h 14mph /  22.5km/h 84% 0.00in /  0mm 257 W/m2
10:49 56.2 °F /  13.4 °C 51.4 °F /  10.8 °C 29.73in /  1006.7hPa WSW 5.4mph /  8.7km/h 14mph /  22.5km/h 84% 0.00in /  0mm 257 W/m2
10:54 56.6 °F /  13.7 °C 51.7 °F /  10.9 °C 29.73in /  1006.7hPa WSW 4.8mph /  7.7km/h 10mph /  16.1km/h 84% 0.00in /  0mm 234 W/m2
10:59 56.7 °F /  13.7 °C 51.7 °F /  10.9 °C 29.73in /  1006.7hPa SW 5.3mph /  8.5km/h 11mph /  17.7km/h 83.6% 0.00in /  0mm 223 W/m2
11:04 56.8 °F /  13.8 °C 51.8 °F /  11 °C 29.73in /  1006.7hPa WSW 6.3mph /  10.1km/h 14mph /  22.5km/h 83% 0.00in /  0mm 220 W/m2
11:09 56.8 °F /  13.8 °C 51.8 °F /  11 °C 29.73in /  1006.7hPa WSW 5mph /  8km/h 14mph /  22.5km/h 83% 0.00in /  0mm 246 W/m2
11:14 56.9 °F /  13.8 °C 51.7 °F /  10.9 °C 29.73in /  1006.7hPa SW 7mph /  11.3km/h 12mph /  19.3km/h 82.4% 0.00in /  0mm 246 W/m2
11:19 57 °F /  13.9 °C 51.6 °F /  10.9 °C 29.72in /  1006.3hPa WSW 6mph /  9.7km/h 13mph /  20.9km/h 82% 0.00in /  0mm 248 W/m2
11:24 57 °F /  13.9 °C 51.6 °F /  10.9 °C 29.72in /  1006.3hPa SW 9.3mph /  15km/h 15mph /  24.1km/h 82% 0.00in /  0mm 297 W/m2
11:29 57 °F /  13.9 °C 51.6 °F /  10.9 °C 29.72in /  1006.3hPa WSW 7.9mph /  12.7km/h 14mph /  22.5km/h 82% 0.00in /  0mm 295 W/m2
11:34 57.2 °F /  14 °C 51.4 °F /  10.8 °C 29.72in /  1006.3hPa SW 7.2mph /  11.6km/h 14mph /  22.5km/h 81% 0.00in /  0mm 278 W/m2
11:39 57.5 °F /  14.2 °C 51.7 °F /  10.9 °C 29.72in /  1006.3hPa WSW 6mph /  9.7km/h 14mph /  22.5km/h 81% 0.00in /  0mm 281 W/m2
11:44 57.6 °F /  14.2 °C 51.8 °F /  11 °C 29.72in /  1006.3hPa WSW 8mph /  12.9km/h 16mph /  25.7km/h 81% 0.00in /  0mm 244 W/m2
11:49 57.5 °F /  14.2 °C 51.7 °F /  10.9 °C 29.72in /  1006.3hPa WSW 9mph /  14.5km/h 16mph /  25.7km/h 81% 0.00in /  0mm 243 W/m2
11:54 57.3 °F /  14.1 °C 51.5 °F /  10.8 °C 29.72in /  1006.3hPa WSW 7.3mph /  11.7km/h 16mph /  25.7km/h 81% 0.00in /  0mm 236 W/m2
11:59 57.6 °F /  14.2 °C 51.8 °F /  11 °C 29.72in /  1006.3hPa WSW 6.8mph /  10.9km/h 13mph /  20.9km/h 81% 0.00in /  0mm 229 W/m2
12:04 57.5 °F /  14.2 °C 51.5 °F /  10.8 °C 29.72in /  1006.3hPa WSW 9.4mph /  15.1km/h 15mph /  24.1km/h 80.4% 0.00in /  0mm 362 W/m2
12:09 57.6 °F /  14.2 °C 51.7 °F /  10.9 °C 29.72in /  1006.3hPa WSW 5.6mph /  9km/h 15mph /  24.1km/h 80.6% 0.00in /  0mm 362 W/m2
12:14 58.3 °F /  14.6 °C 52.2 °F /  11.2 °C 29.72in /  1006.3hPa WSW 6mph /  9.7km/h 11mph /  17.7km/h 79.9% 0.00in /  0mm 605 W/m2
12:19 58.7 °F /  14.8 °C 52 °F /  11.1 °C 29.71in /  1006hPa SW 7.9mph /  12.7km/h 16mph /  25.7km/h 78.3% 0.00in /  0mm 763 W/m2
12:24 59.3 °F /  15.2 °C 52.2 °F /  11.2 °C 29.71in /  1006hPa WSW 8.5mph /  13.7km/h 16mph /  25.7km/h 77.5% 0.00in /  0mm 735 W/m2
12:29 59.3 °F /  15.2 °C 52.1 °F /  11.2 °C 29.71in /  1006hPa SW 8mph /  12.9km/h 16mph /  25.7km/h 77% 0.00in /  0mm 478 W/m2
12:34 59 °F /  15 °C 51.7 °F /  10.9 °C 29.70in /  1005.6hPa WSW 9.6mph /  15.4km/h 16mph /  25.7km/h 76.8% 0.00in /  0mm 258 W/m2
12:39 58.8 °F /  14.9 °C 51.5 °F /  10.8 °C 29.70in /  1005.6hPa West 11.3mph /  18.2km/h 19mph /  30.6km/h 76.6% 0.00in /  0mm 255 W/m2
12:44 58.8 °F /  14.9 °C 51.3 °F /  10.7 °C 29.70in /  1005.6hPa West 8.9mph /  14.3km/h 15mph /  24.1km/h 76% 0.00in /  0mm 193 W/m2
12:49 58.8 °F /  14.9 °C 51.3 °F /  10.7 °C 29.70in /  1005.6hPa West 10.7mph /  17.2km/h 19mph /  30.6km/h 76.2% 0.00in /  0mm 246 W/m2
12:54 58.1 °F /  14.5 °C 51.3 °F /  10.7 °C 29.70in /  1005.6hPa West 10.7mph /  17.2km/h 18mph /  29km/h 78% 0.00in /  0mm 287 W/m2
12:59 57.6 °F /  14.2 °C 51.3 °F /  10.7 °C 29.70in /  1005.6hPa West 8.5mph /  13.7km/h 18mph /  29km/h 79.3% 0.00in /  0mm 142 W/m2
13:04 57.5 °F /  14.2 °C 51.4 °F /  10.8 °C 29.70in /  1005.6hPa WSW 9.2mph /  14.8km/h 17mph /  27.4km/h 80% 0.00in /  0mm 107 W/m2
13:09 57.4 °F /  14.1 °C 51.3 °F /  10.7 °C 29.70in /  1005.6hPa WSW 9.2mph /  14.8km/h 15mph /  24.1km/h 80% 0.00in /  0mm 216 W/m2
13:14 57.4 °F /  14.1 °C 51.3 °F /  10.7 °C 29.70in /  1005.6hPa West 7.9mph /  12.7km/h 15mph /  24.1km/h 80% 0.00in /  0mm 214 W/m2
13:19 57.3 °F /  14.1 °C 51.4 °F /  10.8 °C 29.72in /  1006.3hPa WNW 10mph /  16.1km/h 17mph /  27.4km/h 80.9% 0.01in /  0.25mm 120 W/m2
13:24 55.3 °F /  12.9 °C 49.9 °F /  9.9 °C 29.72in /  1006.3hPa West 10.1mph /  16.3km/h 19mph /  30.6km/h 82% 0.02in /  0.51mm 90 W/m2
13:29 54 °F /  12.2 °C 48.9 °F /  9.4 °C 29.71in /  1006hPa West 8.6mph /  13.8km/h 19mph /  30.6km/h 83.1% 0.02in /  0.51mm 62 W/m2
13:34 53.3 °F /  11.8 °C 48.8 °F /  9.3 °C 29.71in /  1006hPa West 6.6mph /  10.6km/h 19mph /  30.6km/h 84.7% 0.04in /  1.02mm 74 W/m2
13:39 53.1 °F /  11.7 °C 49 °F /  9.4 °C 29.71in /  1006hPa West 3mph /  4.8km/h 11mph /  17.7km/h 86.1% 0.05in /  1.27mm 76 W/m2
13:44 53 °F /  11.7 °C 49.2 °F /  9.6 °C 29.71in /  1006hPa West 5.3mph /  8.5km/h 13mph /  20.9km/h 87% 0.05in /  1.27mm 90 W/m2
13:49 52.9 °F /  11.6 °C 49.4 °F /  9.7 °C 29.70in /  1005.6hPa West 4.2mph /  6.8km/h 9mph /  14.5km/h 87.8% 0.05in /  1.27mm 125 W/m2
13:54 53.1 °F /  11.7 °C 49.6 °F /  9.8 °C 29.70in /  1005.6hPa WSW 3.6mph /  5.8km/h 8mph /  12.9km/h 88.2% 0.05in /  1.27mm 339 W/m2
13:59 53.4 °F /  11.9 °C 50.2 °F /  10.1 °C 29.70in /  1005.6hPa WSW 2.5mph /  4km/h 7mph /  11.3km/h 89% 0.05in /  1.27mm 418 W/m2
14:04 54 °F /  12.2 °C 50.7 °F /  10.4 °C 29.70in /  1005.6hPa SW 4.4mph /  7.1km/h 9mph /  14.5km/h 89% 0.05in /  1.27mm 413 W/m2
14:09 54.5 °F /  12.5 °C 51.3 °F /  10.7 °C 29.69in /  1005.3hPa WSW 3.4mph /  5.5km/h 7mph /  11.3km/h 89% 0.05in /  1.27mm 647 W/m2
14:14 55.3 °F /  12.9 °C 52.1 °F /  11.2 °C 29.69in /  1005.3hPa SW 5.3mph /  8.5km/h 9mph /  14.5km/h 88.9% 0.05in /  1.27mm 570 W/m2
14:19 56 °F /  13.3 °C 52.4 °F /  11.3 °C 29.69in /  1005.3hPa WSW 5mph /  8km/h 13mph /  20.9km/h 87.4% 0.05in /  1.27mm 566 W/m2
14:24 56.6 °F /  13.7 °C 52.4 °F /  11.3 °C 29.69in /  1005.3hPa WSW 6.3mph /  10.1km/h 13mph /  20.9km/h 85.8% 0.03in /  0.76mm 508 W/m2
14:29 57.1 °F /  13.9 °C 52.3 °F /  11.3 °C 29.69in /  1005.3hPa WSW 7mph /  11.3km/h 13mph /  20.9km/h 84.2% 0.02in /  0.51mm 489 W/m2
14:34 57.6 °F /  14.2 °C 52.6 °F /  11.4 °C 29.68in /  1005hPa West 7.1mph /  11.4km/h 15mph /  24.1km/h 83.3% 0.02in /  0.51mm 475 W/m2
14:39 57.7 °F /  14.3 °C 52 °F /  11.1 °C 29.68in /  1005hPa West 10mph /  16.1km/h 16mph /  25.7km/h 81.3% 0.00in /  0mm 471 W/m2
14:44 58.1 °F /  14.5 °C 52.3 °F /  11.3 °C 29.68in /  1005hPa WSW 8.9mph /  14.3km/h 16mph /  25.7km/h 80.9% 0.00in /  0mm 512 W/m2
14:49 58.5 °F /  14.7 °C 52 °F /  11.1 °C 29.68in /  1005hPa WSW 10.1mph /  16.3km/h 17mph /  27.4km/h 79% 0.00in /  0mm 563 W/m2
14:54 58.6 °F /  14.8 °C 51.8 °F /  11 °C 29.68in /  1005hPa WSW 11.8mph /  19km/h 23mph /  37km/h 77.9% 0.00in /  0mm 566 W/m2
14:59 58.5 °F /  14.7 °C 51.5 °F /  10.8 °C 29.68in /  1005hPa West 8.6mph /  13.8km/h 23mph /  37km/h 77.6% 0.00in /  0mm 369 W/m2
15:04 58.5 °F /  14.7 °C 51.6 °F /  10.9 °C 29.68in /  1005hPa West 8.8mph /  14.2km/h 19mph /  30.6km/h 78% 0.00in /  0mm 369 W/m2
15:09 58.7 °F /  14.8 °C 51.3 °F /  10.7 °C 29.68in /  1005hPa West 11.6mph /  18.7km/h 19mph /  30.6km/h 76.5% 0.00in /  0mm 622 W/m2
15:14 59 °F /  15 °C 50.9 °F /  10.5 °C 29.69in /  1005.3hPa West 12.9mph /  20.8km/h 24mph /  38.6km/h 74.4% 0.01in /  0.25mm 501 W/m2
15:19 58.7 °F /  14.8 °C 49.5 °F /  9.7 °C 29.69in /  1005.3hPa West 11.6mph /  18.7km/h 23mph /  37km/h 71.3% 0.01in /  0.25mm 538 W/m2
15:24 58.7 °F /  14.8 °C 49.6 °F /  9.8 °C 29.68in /  1005hPa West 10.5mph /  16.9km/h 25mph /  40.2km/h 71.5% 0.01in /  0.25mm 538 W/m2
15:29 58.2 °F /  14.6 °C 49.1 °F /  9.5 °C 29.69in /  1005.3hPa West 9mph /  14.5km/h 25mph /  40.2km/h 71.6% 0.01in /  0.25mm 132 W/m2
15:34 57.8 °F /  14.3 °C 49.2 °F /  9.6 °C 29.69in /  1005.3hPa West 12.5mph /  20.1km/h 26mph /  41.8km/h 73% 0.01in /  0.25mm 250 W/m2
15:39 57.5 °F /  14.2 °C 49.2 °F /  9.6 °C 29.69in /  1005.3hPa WSW 10.6mph /  17.1km/h 26mph /  41.8km/h 74% 0.01in /  0.25mm 311 W/m2
15:44 57.4 °F /  14.1 °C 49.7 °F /  9.8 °C 29.69in /  1005.3hPa West 8.8mph /  14.2km/h 15mph /  24.1km/h 75.8% 0.01in /  0.25mm 364 W/m2
15:49 57.1 °F /  13.9 °C 49.6 °F /  9.8 °C 29.69in /  1005.3hPa WSW 12.3mph /  19.8km/h 19mph /  30.6km/h 76.3% 0.01in /  0.25mm 420 W/m2
15:54 57.3 °F /  14.1 °C 49.7 °F /  9.8 °C 29.69in /  1005.3hPa West 9.8mph /  15.8km/h 19mph /  30.6km/h 76% 0.01in /  0.25mm 362 W/m2
15:59 56.9 °F /  13.8 °C 49.5 °F /  9.7 °C 29.69in /  1005.3hPa West 10.4mph /  16.7km/h 19mph /  30.6km/h 76.3% 0.01in /  0.25mm 288 W/m2
16:04 56.9 °F /  13.8 °C 49.5 °F /  9.7 °C 29.69in /  1005.3hPa WSW 10.5mph /  16.9km/h 19mph /  30.6km/h 76.3% 0.01in /  0.25mm 438 W/m2
16:09 57.1 °F /  13.9 °C 49.2 °F /  9.6 °C 29.68in /  1005hPa West 9mph /  14.5km/h 16mph /  25.7km/h 75% 0.01in /  0.25mm 346 W/m2
16:14 57 °F /  13.9 °C 48.8 °F /  9.3 °C 29.68in /  1005hPa West 8.8mph /  14.2km/h 16mph /  25.7km/h 74.1% 0.01in /  0.25mm 341 W/m2
16:19 56.7 °F /  13.7 °C 49 °F /  9.4 °C 29.69in /  1005.3hPa WSW 8.6mph /  13.8km/h 15mph /  24.1km/h 75.7% 0.00in /  0mm 142 W/m2
16:24 55.9 °F /  13.3 °C 49 °F /  9.4 °C 29.68in /  1005hPa West 8.5mph /  13.7km/h 15mph /  24.1km/h 77.5% 0.00in /  0mm 114 W/m2
16:29 55.4 °F /  13 °C 48.9 °F /  9.4 °C 29.68in /  1005hPa West 9.6mph /  15.4km/h 21mph /  33.8km/h 79.2% 0.00in /  0mm 155 W/m2
16:34 55.4 °F /  13 °C 49.4 °F /  9.7 °C 29.68in /  1005hPa West 6.4mph /  10.3km/h 13mph /  20.9km/h 80.5% 0.00in /  0mm 306 W/m2
16:39 55.4 °F /  13 °C 49.6 °F /  9.8 °C 29.68in /  1005hPa West 7.9mph /  12.7km/h 15mph /  24.1km/h 81% 0.00in /  0mm 84 W/m2
16:44 55.3 °F /  12.9 °C 49.5 °F /  9.7 °C 29.68in /  1005hPa WNW 4.6mph /  7.4km/h 13mph /  20.9km/h 81% 0.00in /  0mm 81 W/m2
16:49 55.2 °F /  12.9 °C 49.5 °F /  9.7 °C 29.69in /  1005.3hPa West 6.1mph /  9.8km/h 12mph /  19.3km/h 81% 0.00in /  0mm 51 W/m2
16:54 55.1 °F /  12.8 °C 49.5 °F /  9.7 °C 29.69in /  1005.3hPa WNW 5.8mph /  9.3km/h 12mph /  19.3km/h 81.4% 0.02in /  0.51mm 44 W/m2
16:59 54.4 °F /  12.4 °C 49.3 °F /  9.6 °C 29.70in /  1005.6hPa WNW 8.9mph /  14.3km/h 18mph /  29km/h 82.7% 0.02in /  0.51mm 195 W/m2
17:04 53.8 °F /  12.1 °C 49.2 °F /  9.6 °C 29.70in /  1005.6hPa WNW 8.9mph /  14.3km/h 17mph /  27.4km/h 84.3% 0.02in /  0.51mm 243 W/m2
17:09 53.3 °F /  11.8 °C 48.7 °F /  9.3 °C 29.69in /  1005.3hPa WNW 7.6mph /  12.2km/h 16mph /  25.7km/h 84.2% 0.02in /  0.51mm 162 W/m2
17:14 53.2 °F /  11.8 °C 48.6 °F /  9.2 °C 29.69in /  1005.3hPa West 5.5mph /  8.9km/h 13mph /  20.9km/h 84.2% 0.02in /  0.51mm 121 W/m2
17:19 53.2 °F /  11.8 °C 48.6 °F /  9.2 °C 29.69in /  1005.3hPa West 6.9mph /  11.1km/h 12mph /  19.3km/h 84% 0.02in /  0.51mm 162 W/m2
17:24 53.2 °F /  11.8 °C 48.6 °F /  9.2 °C 29.70in /  1005.6hPa WNW 6.1mph /  9.8km/h 13mph /  20.9km/h 84% 0.02in /  0.51mm 125 W/m2
17:29 53.2 °F /  11.8 °C 48.6 °F /  9.2 °C 29.69in /  1005.3hPa West 3.3mph /  5.3km/h 11mph /  17.7km/h 84% 0.02in /  0.51mm 100 W/m2
17:34 53.2 °F /  11.8 °C 48.7 °F /  9.3 °C 29.69in /  1005.3hPa West 4.9mph /  7.9km/h 8mph /  12.9km/h 84.6% 0.02in /  0.51mm 79 W/m2
17:39 53.1 °F /  11.7 °C 48.7 °F /  9.3 °C 29.69in /  1005.3hPa West 3.1mph /  5km/h 8mph /  12.9km/h 85% 0.02in /  0.51mm 72 W/m2
17:44 53 °F /  11.7 °C 48.7 °F /  9.3 °C 29.69in /  1005.3hPa West 5.7mph /  9.2km/h 9mph /  14.5km/h 85% 0.02in /  0.51mm 39 W/m2
17:49 52.8 °F /  11.6 °C 48.5 °F /  9.2 °C 29.69in /  1005.3hPa West 4.2mph /  6.8km/h 7mph /  11.3km/h 85% 0.02in /  0.51mm 30 W/m2
17:54 52.7 °F /  11.5 °C 48.4 °F /  9.1 °C 29.69in /  1005.3hPa West 3.4mph /  5.5km/h 8mph /  12.9km/h 85.1% 0.02in /  0.51mm 26 W/m2
17:59 52.7 °F /  11.5 °C 48.6 °F /  9.2 °C 29.69in /  1005.3hPa West 2.2mph /  3.5km/h 7mph /  11.3km/h 86% 0.00in /  0mm 23 W/m2
18:04 52.7 °F /  11.5 °C 48.6 °F /  9.2 °C 29.69in /  1005.3hPa West 3.2mph /  5.1km/h 5mph /  8km/h 86% 0.00in /  0mm 25 W/m2
18:09 52.9 °F /  11.6 °C 48.7 °F /  9.3 °C 29.69in /  1005.3hPa West 3.3mph /  5.3km/h 6mph /  9.7km/h 86% 0.00in /  0mm 21 W/m2
18:14 53 °F /  11.7 °C 48.8 °F /  9.3 °C 29.70in /  1005.6hPa West 4.4mph /  7.1km/h 9mph /  14.5km/h 86% 0.00in /  0mm 12 W/m2
18:19 53.1 °F /  11.7 °C 48.9 °F /  9.4 °C 29.70in /  1005.6hPa WSW 3.7mph /  6km/h 9mph /  14.5km/h 86% 0.00in /  0mm 9 W/m2
18:24 53.1 °F /  11.7 °C 48.9 °F /  9.4 °C 29.70in /  1005.6hPa West 6.7mph /  10.8km/h 13mph /  20.9km/h 86% 0.00in /  0mm 5 W/m2
18:29 53.2 °F /  11.8 °C 49 °F /  9.4 °C 29.70in /  1005.6hPa West 6.5mph /  10.5km/h 13mph /  20.9km/h 86% 0.00in /  0mm 5 W/m2
18:34 53.4 °F /  11.9 °C 49.2 °F /  9.6 °C 29.71in /  1006hPa WNW 10.7mph /  17.2km/h 19mph /  30.6km/h 85.4% 0.00in /  0mm 0 W/m2
18:39 53.5 °F /  11.9 °C 48.6 °F /  9.2 °C 29.71in /  1006hPa WNW 8.8mph /  14.2km/h 19mph /  30.6km/h 83.3% 0.00in /  0mm 0 W/m2
18:44 53.2 °F /  11.8 °C 48.3 °F /  9.1 °C 29.71in /  1006hPa West 9.6mph /  15.4km/h 15mph /  24.1km/h 83.3% 0.01in /  0.25mm 0 W/m2
18:49 53.1 °F /  11.7 °C 48.4 °F /  9.1 °C 29.71in /  1006hPa WNW 8mph /  12.9km/h 17mph /  27.4km/h 84% 0.01in /  0.25mm 0 W/m2
18:54 52.8 °F /  11.6 °C 48.1 °F /  8.9 °C 29.71in /  1006hPa West 6.1mph /  9.8km/h 17mph /  27.4km/h 84% 0.01in /  0.25mm 0 W/m2
18:59 52.6 °F /  11.4 °C 47.9 °F /  8.8 °C 29.71in /  1006hPa West 5mph /  8km/h 11mph /  17.7km/h 84% 0.01in /  0.25mm 0 W/m2
19:04 52.6 °F /  11.4 °C 47.9 °F /  8.8 °C 29.70in /  1005.6hPa West 8mph /  12.9km/h 13mph /  20.9km/h 84% 0.01in /  0.25mm 0 W/m2
19:09 52.7 °F /  11.5 °C 48 °F /  8.9 °C 29.70in /  1005.6hPa West 8.1mph /  13km/h 14mph /  22.5km/h 84% 0.01in /  0.25mm 0 W/m2
19:14 52.7 °F /  11.5 °C 47.7 °F /  8.7 °C 29.70in /  1005.6hPa West 8.3mph /  13.4km/h 15mph /  24.1km/h 83% 0.01in /  0.25mm 0 W/m2
19:19 52.7 °F /  11.5 °C 47.4 °F /  8.6 °C 29.70in /  1005.6hPa West 9.2mph /  14.8km/h 15mph /  24.1km/h 82.1% 0.01in /  0.25mm 0 W/m2
19:24 52.9 °F /  11.6 °C 47.3 °F /  8.5 °C 29.70in /  1005.6hPa West 7.4mph /  11.9km/h 14mph /  22.5km/h 81.4% 0.01in /  0.25mm 0 W/m2
19:29 52.7 °F /  11.5 °C 47.1 °F /  8.4 °C 29.70in /  1005.6hPa West 7.7mph /  12.4km/h 13mph /  20.9km/h 81% 0.01in /  0.25mm 0 W/m2
19:34 53 °F /  11.7 °C 47.1 °F /  8.4 °C 29.70in /  1005.6hPa WSW 10.9mph /  17.5km/h 17mph /  27.4km/h 80.4% 0.01in /  0.25mm 0 W/m2
19:39 53.1 °F /  11.7 °C 47.1 °F /  8.4 °C 29.70in /  1005.6hPa West 6.7mph /  10.8km/h 17mph /  27.4km/h 80% 0.01in /  0.25mm 0 W/m2
19:44 52.9 °F /  11.6 °C 46.9 °F /  8.3 °C 29.70in /  1005.6hPa West 8.5mph /  13.7km/h 14mph /  22.5km/h 80% 0.01in /  0.25mm 0 W/m2
19:49 52.9 °F /  11.6 °C 46.9 °F /  8.3 °C 29.70in /  1005.6hPa West 7.6mph /  12.2km/h 17mph /  27.4km/h 80% 0.00in /  0mm 0 W/m2
19:54 52.7 °F /  11.5 °C 46.9 °F /  8.3 °C 29.71in /  1006hPa West 4.4mph /  7.1km/h 11mph /  17.7km/h 80.3% 0.00in /  0mm 0 W/m2
19:59 52.5 °F /  11.4 °C 46.9 °F /  8.3 °C 29.71in /  1006hPa West 5.1mph /  8.2km/h 10mph /  16.1km/h 81% 0.00in /  0mm 0 W/m2
20:04 52.5 °F /  11.4 °C 46.9 °F /  8.3 °C 29.71in /  1006hPa WSW 3.8mph /  6.1km/h 9mph /  14.5km/h 81% 0.00in /  0mm 0 W/m2
20:09 52.4 °F /  11.3 °C 46.9 °F /  8.3 °C 29.71in /  1006hPa SW 3.3mph /  5.3km/h 8mph /  12.9km/h 81% 0.00in /  0mm 0 W/m2
20:14 52.3 °F /  11.3 °C 46.8 °F /  8.2 °C 29.71in /  1006hPa WSW 3.2mph /  5.1km/h 8mph /  12.9km/h 81% 0.00in /  0mm 0 W/m2
20:19 52.3 °F /  11.3 °C 46.8 °F /  8.2 °C 29.71in /  1006hPa WSW 4.8mph /  7.7km/h 10mph /  16.1km/h 81% 0.00in /  0mm 0 W/m2
20:24 52.2 °F /  11.2 °C 46.7 °F /  8.2 °C 29.71in /  1006hPa WSW 4.2mph /  6.8km/h 10mph /  16.1km/h 81% 0.00in /  0mm 0 W/m2
20:29 52.3 °F /  11.3 °C 46.8 °F /  8.2 °C 29.71in /  1006hPa WSW 6mph /  9.7km/h 12mph /  19.3km/h 81% 0.00in /  0mm 0 W/m2
20:34 52.3 °F /  11.3 °C 46.8 °F /  8.2 °C 29.71in /  1006hPa WSW 5.9mph /  9.5km/h 12mph /  19.3km/h 81% 0.00in /  0mm 0 W/m2
20:39 52.3 °F /  11.3 °C 46.8 °F /  8.2 °C 29.71in /  1006hPa West 6.3mph /  10.1km/h 12mph /  19.3km/h 81% 0.00in /  0mm 0 W/m2
20:44 52.2 °F /  11.2 °C 46.6 °F /  8.1 °C 29.71in /  1006hPa West 6mph /  9.7km/h 12mph /  19.3km/h 81% 0.00in /  0mm 0 W/m2
20:49 51.8 °F /  11 °C 46.2 °F /  7.9 °C 29.71in /  1006hPa WSW 7mph /  11.3km/h 16mph /  25.7km/h 81% 0.00in /  0mm 0 W/m2
20:54 51.7 °F /  10.9 °C 46.1 °F /  7.8 °C 29.71in /  1006hPa WSW 4.6mph /  7.4km/h 12mph /  19.3km/h 81% 0.00in /  0mm 0 W/m2
20:59 51.5 °F /  10.8 °C 46 °F /  7.8 °C 29.71in /  1006hPa WSW 5.3mph /  8.5km/h 10mph /  16.1km/h 81% 0.00in /  0mm 0 W/m2
21:04 51.4 °F /  10.8 °C 46 °F /  7.8 °C 29.71in /  1006hPa West 7.1mph /  11.4km/h 12mph /  19.3km/h 81.3% 0.00in /  0mm 0 W/m2
21:09 51.3 °F /  10.7 °C 46.1 °F /  7.8 °C 29.71in /  1006hPa WSW 6.9mph /  11.1km/h 13mph /  20.9km/h 82% 0.00in /  0mm 0 W/m2
21:14 51.3 °F /  10.7 °C 46 °F /  7.8 °C 29.70in /  1005.6hPa WSW 6.4mph /  10.3km/h 12mph /  19.3km/h 82% 0.00in /  0mm 0 W/m2
21:19 51.3 °F /  10.7 °C 46 °F /  7.8 °C 29.70in /  1005.6hPa WSW 6.9mph /  11.1km/h 15mph /  24.1km/h 82% 0.00in /  0mm 0 W/m2
21:24 51.3 °F /  10.7 °C 46 °F /  7.8 °C 29.70in /  1005.6hPa WSW 7.7mph /  12.4km/h 15mph /  24.1km/h 82% 0.00in /  0mm 0 W/m2
21:29 51.3 °F /  10.7 °C 46 °F /  7.8 °C 29.71in /  1006hPa WSW 7.3mph /  11.7km/h 15mph /  24.1km/h 82% 0.00in /  0mm 0 W/m2
21:34 51.3 °F /  10.7 °C 46 °F /  7.8 °C 29.71in /  1006hPa West 5.5mph /  8.9km/h 13mph /  20.9km/h 82% 0.00in /  0mm 0 W/m2
21:39 51.2 °F /  10.7 °C 46 °F /  7.8 °C 29.71in /  1006hPa West 6.2mph /  10km/h 13mph /  20.9km/h 82.1% 0.00in /  0mm 0 W/m2
21:44 51.1 °F /  10.6 °C 46 °F /  7.8 °C 29.71in /  1006hPa West 6.5mph /  10.5km/h 16mph /  25.7km/h 83% 0.00in /  0mm 0 W/m2
21:49 51.2 °F /  10.7 °C 46.1 °F /  7.8 °C 29.71in /  1006hPa West 8.2mph /  13.2km/h 16mph /  25.7km/h 83% 0.00in /  0mm 0 W/m2
21:54 51.2 °F /  10.7 °C 46.4 °F /  8 °C 29.71in /  1006hPa WSW 8.3mph /  13.4km/h 17mph /  27.4km/h 83.8% 0.00in /  0mm 0 W/m2
21:59 51 °F /  10.6 °C 46.3 °F /  7.9 °C 29.71in /  1006hPa WSW 7.1mph /  11.4km/h 12mph /  19.3km/h 84% 0.00in /  0mm 0 W/m2
22:04 50.9 °F /  10.5 °C 46.2 °F /  7.9 °C 29.71in /  1006hPa West 5.7mph /  9.2km/h 11mph /  17.7km/h 84% 0.00in /  0mm 0 W/m2
22:09 50.8 °F /  10.4 °C 46.2 °F /  7.9 °C 29.71in /  1006hPa WSW 4.4mph /  7.1km/h 10mph /  16.1km/h 84% 0.00in /  0mm 0 W/m2
22:14 50.7 °F /  10.4 °C 46 °F /  7.8 °C 29.71in /  1006hPa WSW 3.3mph /  5.3km/h 9mph /  14.5km/h 84% 0.00in /  0mm 0 W/m2
22:19 50.5 °F /  10.3 °C 45.9 °F /  7.7 °C 29.71in /  1006hPa WSW 3.4mph /  5.5km/h 9mph /  14.5km/h 84.1% 0.00in /  0mm 0 W/m2
22:24 50.4 °F /  10.2 °C 46 °F /  7.8 °C 29.71in /  1006hPa WSW 2.8mph /  4.5km/h 8mph /  12.9km/h 85% 0.00in /  0mm 0 W/m2
22:29 50.3 °F /  10.2 °C 46 °F /  7.8 °C 29.71in /  1006hPa WSW 3.7mph /  6km/h 8mph /  12.9km/h 85% 0.00in /  0mm 0 W/m2
22:34 50.3 °F /  10.2 °C 46 °F /  7.8 °C 29.72in /  1006.3hPa WSW 4.2mph /  6.8km/h 9mph /  14.5km/h 85% 0.00in /  0mm 0 W/m2
22:39 50.3 °F /  10.2 °C 45.9 °F /  7.7 °C 29.72in /  1006.3hPa West 3.3mph /  5.3km/h 9mph /  14.5km/h 85% 0.00in /  0mm 0 W/m2
22:44 50.3 °F /  10.2 °C 46 °F /  7.8 °C 29.72in /  1006.3hPa West 3.7mph /  6km/h 9mph /  14.5km/h 85.1% 0.00in /  0mm 0 W/m2
22:49 50.3 °F /  10.2 °C 46.3 °F /  7.9 °C 29.72in /  1006.3hPa West 2.2mph /  3.5km/h 8mph /  12.9km/h 86% 0.00in /  0mm 0 W/m2
22:54 50.3 °F /  10.2 °C 46.3 °F /  7.9 °C 29.72in /  1006.3hPa WSW 3.4mph /  5.5km/h 7mph /  11.3km/h 86% 0.00in /  0mm 0 W/m2
22:59 50.4 °F /  10.2 °C 46.4 °F /  8 °C 29.71in /  1006hPa SW 5.2mph /  8.4km/h 12mph /  19.3km/h 86% 0.00in /  0mm 0 W/m2
23:04 50.4 °F /  10.2 °C 46.1 °F /  7.8 °C 29.71in /  1006hPa SW 5.7mph /  9.2km/h 11mph /  17.7km/h 85.3% 0.00in /  0mm 0 W/m2
23:09 50.4 °F /  10.2 °C 46 °F /  7.8 °C 29.71in /  1006hPa WSW 7.2mph /  11.6km/h 15mph /  24.1km/h 85% 0.00in /  0mm 0 W/m2
23:14 50.4 °F /  10.2 °C 46 °F /  7.8 °C 29.71in /  1006hPa WSW 6.5mph /  10.5km/h 15mph /  24.1km/h 85% 0.00in /  0mm 0 W/m2
23:19 50.4 °F /  10.2 °C 45.7 °F /  7.6 °C 29.72in /  1006.3hPa WSW 7.4mph /  11.9km/h 14mph /  22.5km/h 84% 0.00in /  0mm 0 W/m2
23:24 50.4 °F /  10.2 °C 45.7 °F /  7.6 °C 29.72in /  1006.3hPa WSW 5.2mph /  8.4km/h 14mph /  22.5km/h 84% 0.00in /  0mm 0 W/m2
23:29 50.4 °F /  10.2 °C 45.7 °F /  7.6 °C 29.72in /  1006.3hPa WSW 5.4mph /  8.7km/h 10mph /  16.1km/h 84% 0.00in /  0mm 0 W/m2
23:34 50.4 °F /  10.2 °C 45.7 °F /  7.6 °C 29.72in /  1006.3hPa West 4.1mph /  6.6km/h 10mph /  16.1km/h 84% 0.00in /  0mm 0 W/m2
23:39 50.3 °F /  10.2 °C 45.6 °F /  7.6 °C 29.71in /  1006hPa West 3mph /  4.8km/h 10mph /  16.1km/h 84% 0.00in /  0mm 0 W/m2
23:44 50.2 °F /  10.1 °C 45.5 °F /  7.5 °C 29.71in /  1006hPa West 2.6mph /  4.2km/h 10mph /  16.1km/h 84% 0.00in /  0mm 0 W/m2
23:49 50 °F /  10 °C 45.3 °F /  7.4 °C 29.71in /  1006hPa WSW 2.9mph /  4.7km/h 7mph /  11.3km/h 84% 0.00in /  0mm 0 W/m2
23:54 49.8 °F /  9.9 °C 45.2 °F /  7.3 °C 29.71in /  1006hPa West 4.7mph /  7.6km/h 8mph /  12.9km/h 84% 0.00in /  0mm 0 W/m2
23:59 49.8 °F /  9.9 °C 45.1 °F /  7.3 °C 29.71in /  1006hPa WSW 3.7mph /  6km/h 8mph /  12.9km/h 84% 0.00in /  0mm 0 W/m2
Bath Spa Weather
Compliments of Weather Underground - 2 mb